createdAt,value
2017-11-10T00:00:13.042Z,10.57
2017-11-10T00:02:41.093Z,10.87
2017-11-10T00:05:08.729Z,10.70
2017-11-10T00:07:38.103Z,9.80
2017-11-10T00:10:05.538Z,11.47
2017-11-10T00:12:33.175Z,10.80
2017-11-10T00:15:00.817Z,12.00
2017-11-10T00:17:28.525Z,10.77
2017-11-10T00:19:56.152Z,10.53
2017-11-10T00:22:23.781Z,11.83
2017-11-10T00:24:51.461Z,13.00
2017-11-10T00:27:19.092Z,10.53
2017-11-10T00:29:47.547Z,11.47
2017-11-10T00:32:16.215Z,10.87
2017-11-10T00:34:43.840Z,11.77
2017-11-10T00:37:11.463Z,10.03
2017-11-10T00:39:39.157Z,11.17
2017-11-10T00:42:07.601Z,11.90
2017-11-10T00:44:36.197Z,10.57
2017-11-10T00:47:03.901Z,10.97
2017-11-10T00:49:32.478Z,11.07
2017-11-10T00:52:01.050Z,11.00
2017-11-10T00:57:09.826Z,13.48
2017-11-10T00:59:37.522Z,10.87
2017-11-10T01:02:05.430Z,11.17
2017-11-10T01:04:32.802Z,9.20
2017-11-10T01:07:00.511Z,8.70
2017-11-10T01:09:28.973Z,7.20
2017-11-10T01:11:56.617Z,8.63
2017-11-10T01:14:24.378Z,8.70
2017-11-10T01:16:52.954Z,8.33
2017-11-10T01:19:22.186Z,7.83
2017-11-10T01:21:50.722Z,5.00
2017-11-10T01:24:18.354Z,7.60
2017-11-10T01:26:46.830Z,8.13
2017-11-10T01:29:15.474Z,8.80
2017-11-10T01:31:44.059Z,5.47
2017-11-10T01:34:12.658Z,7.27
2017-11-10T01:36:41.323Z,8.40
2017-11-10T01:39:08.959Z,8.77
2017-11-10T01:41:37.058Z,8.47
2017-11-10T01:44:10.311Z,8.90
2017-11-10T01:46:38.843Z,8.90
2017-11-10T01:49:06.477Z,9.93
2017-11-10T01:51:34.186Z,10.57
2017-11-10T01:54:01.823Z,9.50
2017-11-10T01:56:29.458Z,9.27
2017-11-10T01:58:57.648Z,9.83
2017-11-10T02:01:25.287Z,10.10
2017-11-10T02:06:32.082Z,9.80
2017-11-10T02:09:00.685Z,8.60
2017-11-10T02:11:29.278Z,8.97
2017-11-10T02:13:57.913Z,8.27
2017-11-10T02:16:26.514Z,7.80
2017-11-10T02:18:55.009Z,6.80
2017-11-10T02:21:22.718Z,8.67
2017-11-10T02:23:50.355Z,10.23
2017-11-10T02:26:18.814Z,9.60
2017-11-10T02:28:47.462Z,9.97
2017-11-10T02:31:15.930Z,10.90
2017-11-10T02:33:47.342Z,9.10
2017-11-10T02:36:14.995Z,9.63
2017-11-10T02:38:42.631Z,9.73
2017-11-10T02:41:10.322Z,9.23
2017-11-10T02:43:37.955Z,10.10
2017-11-10T02:46:05.595Z,9.33
2017-11-10T02:48:34.124Z,10.63
2017-11-10T02:51:01.777Z,9.40
2017-11-10T02:53:29.400Z,9.30
2017-11-10T02:55:57.098Z,8.60
2017-11-10T02:58:25.674Z,8.83
2017-11-10T03:00:54.624Z,8.70
2017-11-10T03:03:24.169Z,8.57
2017-11-10T03:05:51.809Z,8.20
2017-11-10T03:08:19.451Z,7.53
2017-11-10T03:10:47.138Z,8.07
2017-11-10T03:13:14.765Z,7.03
2017-11-10T03:18:21.668Z,9.52
2017-11-10T03:20:49.317Z,8.00
2017-11-10T03:23:16.948Z,8.17
2017-11-10T03:25:44.646Z,7.87
2017-11-10T03:28:13.266Z,8.30
2017-11-10T03:30:40.886Z,8.03
2017-11-10T03:33:08.577Z,7.70
2017-11-10T03:35:36.213Z,7.70
2017-11-10T03:38:03.832Z,7.70
2017-11-10T03:40:31.504Z,6.77
2017-11-10T03:42:59.127Z,7.33
2017-11-10T03:45:26.754Z,7.87
2017-11-10T03:47:54.474Z,7.07
2017-11-10T03:50:22.079Z,7.37
2017-11-10T03:52:49.709Z,7.07
2017-11-10T03:55:17.382Z,7.43
2017-11-10T03:57:44.997Z,7.30
2017-11-10T04:00:13.128Z,6.63
2017-11-10T04:02:40.824Z,6.70
2017-11-10T04:05:08.445Z,4.93
2017-11-10T04:07:36.066Z,5.47
2017-11-10T04:10:03.744Z,5.90
2017-11-10T04:12:31.369Z,6.27
2017-11-10T04:14:58.989Z,5.43
2017-11-10T04:17:26.675Z,5.63
2017-11-10T04:19:54.293Z,5.70
2017-11-10T04:22:21.925Z,5.97
2017-11-10T04:24:49.636Z,5.30
2017-11-10T04:27:17.264Z,5.33
2017-11-10T04:29:44.887Z,5.93
2017-11-10T04:32:12.561Z,5.60
2017-11-10T04:34:40.187Z,5.33
2017-11-10T04:37:07.811Z,6.17
2017-11-10T04:39:35.518Z,5.83
2017-11-10T04:42:03.556Z,5.97
2017-11-10T04:47:11.343Z,7.93
2017-11-10T04:49:39.799Z,6.50
2017-11-10T04:52:07.527Z,6.03
2017-11-10T04:54:35.981Z,7.20
2017-11-10T04:57:03.611Z,6.57
2017-11-10T04:59:31.228Z,6.50
2017-11-10T05:01:59.726Z,6.00
2017-11-10T05:04:27.359Z,6.77
2017-11-10T05:06:54.973Z,6.70
2017-11-10T05:09:22.674Z,6.77
2017-11-10T05:11:50.304Z,6.20
2017-11-10T05:14:18.732Z,6.50
2017-11-10T05:16:46.422Z,6.10
2017-11-10T05:19:14.049Z,6.30
2017-11-10T05:21:41.668Z,6.27
2017-11-10T05:24:10.198Z,5.37
2017-11-10T05:26:37.822Z,5.50
2017-11-10T05:29:05.444Z,6.13
2017-11-10T05:31:33.119Z,9.13
2017-11-10T05:34:00.745Z,10.00
2017-11-10T05:36:28.365Z,8.33
2017-11-10T05:38:56.056Z,7.90
2017-11-10T05:41:23.690Z,7.13
2017-11-10T05:43:51.310Z,7.33
2017-11-10T05:46:18.986Z,7.57
2017-11-10T05:48:46.641Z,8.53
2017-11-10T05:51:14.243Z,6.63
2017-11-10T05:53:41.938Z,6.20
2017-11-10T05:56:09.560Z,6.47
2017-11-10T05:58:37.184Z,6.33
2017-11-10T06:03:47.554Z,8.40
2017-11-10T06:06:15.546Z,7.23
2017-11-10T06:08:43.164Z,7.63
2017-11-10T06:11:10.788Z,6.63
2017-11-10T06:13:39.293Z,7.13
2017-11-10T06:16:06.927Z,9.40
2017-11-10T06:18:34.538Z,7.03
2017-11-10T06:21:02.268Z,6.67
2017-11-10T06:23:29.854Z,6.53
2017-11-10T06:25:57.485Z,6.57
2017-11-10T06:28:25.167Z,6.47
2017-11-10T06:30:52.793Z,7.17
2017-11-10T06:33:20.435Z,6.90
2017-11-10T06:35:48.118Z,7.33
2017-11-10T06:38:15.763Z,6.73
2017-11-10T06:40:43.406Z,6.73
2017-11-10T06:43:11.099Z,6.83
2017-11-10T06:45:39.687Z,4.47
2017-11-10T06:48:07.309Z,4.83
2017-11-10T06:50:34.977Z,3.10
2017-11-10T06:53:02.610Z,3.17
2017-11-10T06:55:30.239Z,3.50
2017-11-10T06:57:57.907Z,3.17
2017-11-10T07:00:25.533Z,3.30
2017-11-10T07:02:53.145Z,2.40
2017-11-10T07:05:20.839Z,4.33
2017-11-10T07:07:48.445Z,3.90
2017-11-10T07:10:16.066Z,5.63
2017-11-10T07:12:43.774Z,7.40
2017-11-10T07:15:11.391Z,8.30
2017-11-10T07:17:39.024Z,7.13
2017-11-10T07:20:06.720Z,8.17
2017-11-10T07:22:37.464Z,7.53
2017-11-10T07:27:44.484Z,9.18
2017-11-10T07:30:12.121Z,8.47
2017-11-10T07:32:39.744Z,6.73
2017-11-10T07:35:07.419Z,4.17
2017-11-10T07:37:35.036Z,4.80
2017-11-10T07:40:02.660Z,4.17
2017-11-10T07:45:10.895Z,5.22
2017-11-10T07:47:39.423Z,4.50
2017-11-10T07:50:07.053Z,4.53
2017-11-10T07:52:34.693Z,5.40
2017-11-10T07:55:03.378Z,5.63
2017-11-10T07:57:31.025Z,5.60
2017-11-10T07:59:58.670Z,5.87
2017-11-10T08:02:28.727Z,5.93
2017-11-10T08:04:56.358Z,6.50
2017-11-10T08:07:24.837Z,5.03
2017-11-10T08:09:52.985Z,5.03
2017-11-10T08:12:20.627Z,5.20
2017-11-10T08:14:48.260Z,5.27
2017-11-10T08:17:15.965Z,5.57
2017-11-10T08:19:43.614Z,5.90
2017-11-10T08:22:11.804Z,5.23
2017-11-10T08:24:39.485Z,5.00
2017-11-10T08:27:07.123Z,4.90
2017-11-10T08:29:34.750Z,5.03
2017-11-10T08:32:02.843Z,5.03
2017-11-10T08:34:30.467Z,5.17
2017-11-10T08:36:58.092Z,5.00
2017-11-10T08:39:25.773Z,4.93
2017-11-10T08:41:53.414Z,5.70
2017-11-10T08:44:21.042Z,5.23
2017-11-10T08:46:48.746Z,5.50
2017-11-10T08:49:18.379Z,5.60
2017-11-10T08:51:46.002Z,5.40
2017-11-10T08:54:13.694Z,5.60
2017-11-10T08:56:41.322Z,6.03
2017-11-10T08:59:10.812Z,6.07
2017-11-10T09:01:36.840Z,6.20
2017-11-10T09:04:05.317Z,5.77
2017-11-10T09:06:33.762Z,4.70
2017-11-10T09:11:40.557Z,6.43
2017-11-10T09:14:08.234Z,5.93
2017-11-10T09:16:35.862Z,5.23
2017-11-10T09:19:03.485Z,5.43
2017-11-10T09:21:31.185Z,6.30
2017-11-10T09:23:58.819Z,5.77
2017-11-10T09:26:27.276Z,5.60
2017-11-10T09:29:01.102Z,5.83
2017-11-10T09:34:18.174Z,5.95
2017-11-10T09:36:51.635Z,5.03
2017-11-10T09:42:03.679Z,6.75
2017-11-10T09:44:33.345Z,6.03
2017-11-10T09:57:49.082Z,6.70
2017-11-10T10:00:23.070Z,5.50
2017-11-10T10:05:40.189Z,6.45
2017-11-10T10:24:18.440Z,6.40
2017-11-10T10:26:46.149Z,5.87
2017-11-10T10:29:13.779Z,6.17
2017-11-10T10:31:41.426Z,5.80
2017-11-10T10:34:09.113Z,5.37
2017-11-10T10:36:36.757Z,6.70
2017-11-10T10:39:04.400Z,6.00
2017-11-10T10:41:32.093Z,6.13
2017-11-10T10:43:59.722Z,5.80
2017-11-10T10:46:28.206Z,6.03
2017-11-10T10:48:55.906Z,6.20
2017-11-10T10:51:23.526Z,5.40
2017-11-10T10:53:51.160Z,5.80
2017-11-10T10:56:18.875Z,6.30
2017-11-10T10:58:46.515Z,5.30
2017-11-10T11:01:14.148Z,5.10
2017-11-10T11:03:41.842Z,5.53
2017-11-10T11:06:09.468Z,5.73
2017-11-10T11:08:37.095Z,5.77
2017-11-10T11:11:04.798Z,6.13
2017-11-10T11:13:32.753Z,5.57
2017-11-10T11:16:00.297Z,5.70
2017-11-10T11:18:28.005Z,5.90
2017-11-10T11:20:55.741Z,6.20
2017-11-10T11:23:23.324Z,5.93
2017-11-10T11:25:51.031Z,6.13
2017-11-10T11:28:18.888Z,6.27
2017-11-10T11:30:46.476Z,6.20
2017-11-10T11:33:14.165Z,6.53
2017-11-10T11:35:41.782Z,6.10
2017-11-10T11:38:09.405Z,7.00
2017-11-10T11:40:37.093Z,6.50
2017-11-10T11:43:04.869Z,5.50
2017-11-10T11:45:32.340Z,5.67
2017-11-10T11:50:39.154Z,6.85
2017-11-10T11:53:06.844Z,6.30
2017-11-10T11:55:34.470Z,5.37
2017-11-10T11:58:02.099Z,6.40
2017-11-10T12:00:29.784Z,6.27
2017-11-10T12:02:57.660Z,5.33
2017-11-10T12:05:25.279Z,5.20
2017-11-10T12:07:52.973Z,5.03
2017-11-10T12:10:20.602Z,4.97
2017-11-10T12:12:48.248Z,5.53
2017-11-10T12:15:16.873Z,5.63
2017-11-10T12:17:44.493Z,5.43
2017-11-10T12:20:12.983Z,5.27
2017-11-10T12:22:41.545Z,5.80
2017-11-10T12:25:09.205Z,4.70
2017-11-10T12:27:36.794Z,5.20
2017-11-10T12:30:04.478Z,5.53
2017-11-10T12:32:32.103Z,5.00
2017-11-10T12:34:59.727Z,4.47
2017-11-10T12:37:28.268Z,4.37
2017-11-10T12:39:55.892Z,4.00
2017-11-10T12:42:23.502Z,4.93
2017-11-10T12:44:51.182Z,3.90
2017-11-10T12:47:19.618Z,4.40
2017-11-10T12:49:47.254Z,3.10
2017-11-10T12:52:14.960Z,3.73
2017-11-10T12:57:21.760Z,5.65
2017-11-10T12:59:50.328Z,4.07
2017-11-10T13:02:17.957Z,4.80
2017-11-10T13:04:45.670Z,5.97
2017-11-10T13:07:14.023Z,5.27
2017-11-10T13:09:41.650Z,5.87
2017-11-10T13:12:09.351Z,5.50
2017-11-10T13:14:36.993Z,4.30
2017-11-10T13:17:04.622Z,4.20
2017-11-10T13:19:33.278Z,4.40
2017-11-10T13:22:01.859Z,6.93
2017-11-10T13:24:29.510Z,7.70
2017-11-10T13:26:57.220Z,9.03
2017-11-10T13:29:24.847Z,6.07
2017-11-10T13:31:52.475Z,4.90
2017-11-10T13:34:20.162Z,3.27
2017-11-10T13:36:47.792Z,4.70
2017-11-10T13:39:16.387Z,4.50
2017-11-10T13:41:45.054Z,5.50
2017-11-10T13:44:13.533Z,5.80
2017-11-10T13:46:42.159Z,6.30
2017-11-10T13:49:09.853Z,4.03
2017-11-10T13:51:37.481Z,4.40
2017-11-10T13:54:05.931Z,5.10
2017-11-10T13:56:33.636Z,4.30
2017-11-10T13:59:01.273Z,3.80
2017-11-10T14:01:28.906Z,4.60
2017-11-10T14:03:56.608Z,4.73
2017-11-10T14:06:24.247Z,4.20
2017-11-10T14:08:51.882Z,4.30
2017-11-10T14:11:19.570Z,5.10
2017-11-10T14:13:47.203Z,4.97
2017-11-10T14:16:14.849Z,5.93
2017-11-10T14:18:42.523Z,7.30
2017-11-10T14:21:10.167Z,7.50
2017-11-10T14:26:17.822Z,4.30
2017-11-10T14:28:45.442Z,3.97
2017-11-10T14:31:14.010Z,3.97
2017-11-10T14:33:41.717Z,5.40
2017-11-10T14:36:09.338Z,5.30
2017-11-10T14:38:36.966Z,5.10
2017-11-10T14:41:04.726Z,5.23
2017-11-10T14:43:32.306Z,5.17
2017-11-10T14:45:59.937Z,4.20
2017-11-10T14:48:27.620Z,3.50
2017-11-10T14:50:55.241Z,4.00
2017-11-10T14:53:22.864Z,3.73
2017-11-10T14:55:51.537Z,3.60
2017-11-10T14:58:19.689Z,3.17
2017-11-10T15:00:47.246Z,3.43
2017-11-10T15:03:14.960Z,3.80
2017-11-10T15:05:42.833Z,3.60
2017-11-10T15:08:10.487Z,3.20
2017-11-10T15:10:38.199Z,3.27
2017-11-10T15:13:06.172Z,3.63
2017-11-10T15:15:33.802Z,3.57
2017-11-10T15:20:33.204Z,3.97
2017-11-10T15:23:01.341Z,3.60
2017-11-10T15:25:29.052Z,3.40
2017-11-10T15:27:56.679Z,3.23
2017-11-10T15:30:25.290Z,4.63
2017-11-10T15:32:53.007Z,5.00
2017-11-10T15:35:22.440Z,5.23
2017-11-10T15:40:32.583Z,4.50
2017-11-10T15:43:00.215Z,4.70
2017-11-10T15:45:27.853Z,4.07
2017-11-10T15:47:55.552Z,4.00
2017-11-10T15:50:23.170Z,3.77
2017-11-10T15:52:50.797Z,3.83
2017-11-10T15:55:18.505Z,4.10
2017-11-10T15:57:47.430Z,3.73
2017-11-10T16:00:15.070Z,6.50
2017-11-10T16:02:43.221Z,10.23
2017-11-10T16:05:10.812Z,9.57
2017-11-10T16:07:38.961Z,6.63
2017-11-10T16:10:06.642Z,4.83
2017-11-10T16:12:34.258Z,4.27
2017-11-10T16:15:01.891Z,5.37
2017-11-10T16:17:29.608Z,3.73
2017-11-10T16:19:57.229Z,3.97
2017-11-10T16:22:24.849Z,4.40
2017-11-10T16:24:52.551Z,4.43
2017-11-10T16:27:20.169Z,4.40
2017-11-10T16:29:47.792Z,5.17
2017-11-10T16:32:15.482Z,5.17
2017-11-10T16:34:43.117Z,5.43
2017-11-10T16:37:10.763Z,5.67
2017-11-10T16:39:38.452Z,5.63
2017-11-10T16:42:06.061Z,5.30
2017-11-10T16:44:33.696Z,4.97
2017-11-10T16:47:02.362Z,4.20
2017-11-10T16:49:29.980Z,4.17
2017-11-10T16:51:57.616Z,4.10
2017-11-10T16:54:26.117Z,4.03
2017-11-10T16:56:53.744Z,5.27
2017-11-10T16:59:21.371Z,6.07
2017-11-10T17:01:49.902Z,5.10
2017-11-10T17:06:57.461Z,5.20
2017-11-10T17:09:25.085Z,4.60
2017-11-10T17:11:52.791Z,4.10
2017-11-10T17:14:20.605Z,3.93
2017-11-10T17:16:48.241Z,3.77
2017-11-10T17:19:15.878Z,4.07
2017-11-10T17:21:43.575Z,3.97
2017-11-10T17:24:11.203Z,4.97
2017-11-10T17:26:38.829Z,4.33
2017-11-10T17:29:06.522Z,4.20
2017-11-10T17:31:34.149Z,3.40
2017-11-10T17:34:01.781Z,3.90
2017-11-10T17:36:29.473Z,3.87
2017-11-10T17:38:58.041Z,3.60
2017-11-10T17:41:25.683Z,3.87
2017-11-10T17:43:53.374Z,3.83
2017-11-10T17:46:21.009Z,4.37
2017-11-10T17:48:48.680Z,4.03
2017-11-10T17:51:16.404Z,3.83
2017-11-10T17:53:44.382Z,4.10
2017-11-10T17:56:12.017Z,3.03
2017-11-10T17:58:39.726Z,3.20
2017-11-10T18:01:07.349Z,2.97
2017-11-10T18:03:34.997Z,3.43
2017-11-10T18:06:02.714Z,3.80
2017-11-10T18:08:30.339Z,4.27
2017-11-10T18:10:58.104Z,3.60
2017-11-10T18:13:26.734Z,4.60
2017-11-10T18:15:54.349Z,5.43
2017-11-10T18:18:22.406Z,4.57
2017-11-10T18:20:50.126Z,4.10
2017-11-10T18:25:58.142Z,5.10
2017-11-10T18:28:25.798Z,4.80
2017-11-10T18:30:54.370Z,5.00
2017-11-10T18:33:22.049Z,4.40
2017-11-10T18:35:49.661Z,5.47
2017-11-10T18:38:17.300Z,4.47
2017-11-10T18:40:45.005Z,6.33
2017-11-10T18:43:12.615Z,6.33
2017-11-10T18:45:40.241Z,11.23
2017-11-10T18:48:07.951Z,7.17
2017-11-10T18:50:35.582Z,10.43
2017-11-10T18:53:05.234Z,9.73
2017-11-10T18:58:13.300Z,10.05
2017-11-10T19:00:41.008Z,8.07
2017-11-10T19:03:08.629Z,7.63
2017-11-10T19:05:43.717Z,6.77
2017-11-10T19:08:11.422Z,5.77
2017-11-10T19:10:39.050Z,6.53
2017-11-10T19:13:06.683Z,6.60
2017-11-10T19:15:34.393Z,6.20
2017-11-10T19:18:02.031Z,6.40
2017-11-10T19:20:29.707Z,5.87
2017-11-10T19:22:57.323Z,5.70
2017-11-10T19:25:24.951Z,6.20
2017-11-10T19:27:52.599Z,5.33
2017-11-10T19:30:20.565Z,5.53
2017-11-10T19:32:48.218Z,5.47
2017-11-10T19:35:15.759Z,6.47
2017-11-10T19:37:43.501Z,6.23
2017-11-10T19:40:11.130Z,4.60
2017-11-10T19:42:38.760Z,4.90
2017-11-10T19:45:06.647Z,4.17
2017-11-10T19:47:34.243Z,4.83
2017-11-10T19:50:01.881Z,4.60
2017-11-10T19:52:29.570Z,4.03
2017-11-10T19:54:57.186Z,3.97
2017-11-10T19:57:24.829Z,4.23
2017-11-10T19:59:52.521Z,5.40
2017-11-10T20:02:20.985Z,5.40
2017-11-10T20:04:48.611Z,6.20
2017-11-10T20:07:16.300Z,5.10
2017-11-10T20:09:43.914Z,4.80
2017-11-10T20:12:11.635Z,5.03
2017-11-10T20:14:39.325Z,4.70
2017-11-10T20:17:07.029Z,5.23
2017-11-10T20:22:13.792Z,5.05
2017-11-10T20:24:41.460Z,5.60
2017-11-10T20:27:09.084Z,5.30
2017-11-10T20:29:36.812Z,4.90
2017-11-10T20:32:04.451Z,5.57
2017-11-10T20:34:32.961Z,5.80
2017-11-10T20:37:00.642Z,6.17
2017-11-10T20:39:28.257Z,6.10
2017-11-10T20:41:55.881Z,6.23
2017-11-10T20:44:23.571Z,11.40
2017-11-10T20:46:51.675Z,8.87
2017-11-10T20:49:19.468Z,14.37
2017-11-10T20:51:47.460Z,12.03
2017-11-10T20:54:15.299Z,11.20
2017-11-10T20:56:43.319Z,8.40
2017-11-10T20:59:11.191Z,7.33
2017-11-10T21:01:39.147Z,7.50
2017-11-10T21:04:06.699Z,6.03
2017-11-10T21:06:35.380Z,5.83
2017-11-10T21:09:03.039Z,6.27
2017-11-10T21:11:30.684Z,6.27
2017-11-10T21:13:58.377Z,6.93
2017-11-10T21:16:26.013Z,9.27
2017-11-10T21:18:53.644Z,8.77
2017-11-10T21:21:21.357Z,7.53
2017-11-10T21:23:48.981Z,6.07
2017-11-10T21:26:16.628Z,5.97
2017-11-10T21:28:44.777Z,8.83
2017-11-10T21:31:12.585Z,11.53
2017-11-10T21:33:40.245Z,7.17
2017-11-10T21:36:07.915Z,8.93
2017-11-10T21:41:18.443Z,11.35
2017-11-10T21:43:46.408Z,8.90
2017-11-10T21:46:14.247Z,7.23
2017-11-10T21:48:42.832Z,7.03
2017-11-10T21:51:10.465Z,7.20
2017-11-10T21:53:38.093Z,7.57
2017-11-10T21:56:06.261Z,8.27
2017-11-10T21:58:33.885Z,8.60
2017-11-10T22:01:01.510Z,7.97
2017-11-10T22:03:29.218Z,7.80
2017-11-10T22:05:56.870Z,8.20
2017-11-10T22:08:24.508Z,9.07
2017-11-10T22:10:52.194Z,9.73
2017-11-10T22:13:19.827Z,8.13
2017-11-10T22:15:47.464Z,6.07
2017-11-10T22:18:15.183Z,5.33
2017-11-10T22:20:42.807Z,4.10
2017-11-10T22:23:10.451Z,4.70
2017-11-10T22:25:38.158Z,7.23
2017-11-10T22:28:05.798Z,6.47
2017-11-10T22:30:33.434Z,7.23
2017-11-10T22:33:01.152Z,7.17
2017-11-10T22:35:28.779Z,6.67
2017-11-10T22:37:57.095Z,7.20
2017-11-10T22:40:24.802Z,7.13
2017-11-10T22:42:52.450Z,6.03
2017-11-10T22:45:20.088Z,5.73
2017-11-10T22:47:47.765Z,4.50
2017-11-10T22:50:15.395Z,5.17
2017-11-10T22:52:43.037Z,6.70
2017-11-10T22:55:10.734Z,5.90
2017-11-10T22:57:38.440Z,5.23
2017-11-10T23:00:06.767Z,6.00
2017-11-10T23:02:34.455Z,6.50
2017-11-10T23:07:41.298Z,7.00
2017-11-10T23:10:08.929Z,6.07
2017-11-10T23:12:36.548Z,5.93
2017-11-10T23:15:04.304Z,6.10
2017-11-10T23:17:31.953Z,6.60
2017-11-10T23:19:59.623Z,6.70
2017-11-10T23:22:27.313Z,6.77
2017-11-10T23:24:54.943Z,6.40
2017-11-10T23:27:23.406Z,7.20
2017-11-10T23:29:51.106Z,7.23
2017-11-10T23:32:18.750Z,6.77
2017-11-10T23:34:46.396Z,7.03
2017-11-10T23:37:14.095Z,6.93
2017-11-10T23:39:41.731Z,6.70
2017-11-10T23:42:09.364Z,6.30
2017-11-10T23:44:37.541Z,5.80
2017-11-10T23:47:05.177Z,6.53
2017-11-10T23:49:32.820Z,6.60
2017-11-10T23:52:00.606Z,6.10
2017-11-10T23:54:28.250Z,6.30
2017-11-10T23:56:56.837Z,6.57
2017-11-10T23:59:25.457Z,6.40
